| time (UTC) | temp C | wind direction | speed KPH | gust KPH | rain 1hr cm | rain 24hr cm | rain mn cm | humidity % | barometer mb |
| 20260906092415 | 19 | 187 | 0.0 | 0.0 | 0.00 | 0.18 | 0.00 | 95 | 1014.4 |
| 20260906091421 | 19 | 187 | 0.0 | 0.0 | 0.00 | 0.18 | 0.00 | 95 | 1014.6 |
| 20260906090426 | 19 | 187 | 0.0 | 0.0 | 0.00 | 0.18 | 0.00 | 95 | 1014.6 |
| 20260906085434 | 19 | 187 | 0.0 | 0.0 | 0.00 | 0.18 | 0.00 | 95 | 1014.6 |
| 20260906084420 | 19 | 187 | 0.0 | 3.2 | 0.00 | 0.18 | 0.00 | 95 | 1014.5 |
| 20260906083427 | 19 | 187 | 0.0 | 3.2 | 0.00 | 0.18 | 0.00 | 94 | 1014.5 |
| 20260906082424 | 19 | 187 | 0.0 | 0.0 | 0.00 | 0.18 | 0.00 | 95 | 1014.5 |
| 20260906081417 | 19 | 187 | 1.6 | 3.2 | 0.00 | 0.18 | 0.00 | 94 | 1014.4 |
| 20260906080424 | 19 | 187 | 0.0 | 0.0 | 0.00 | 0.18 | 0.00 | 94 | 1014.4 |
| 20260906075433 | 19 | 187 | 0.0 | 0.0 | 0.00 | 0.20 | 0.00 | 94 | 1014.6 |
| 20260906074440 | 19 | 187 | 0.0 | 0.0 | 0.00 | 0.20 | 0.00 | 94 | 1014.6 |
| 20260906073426 | 19 | 187 | 0.0 | 0.0 | 0.00 | 0.20 | 0.00 | 94 | 1014.7 |
| 20260906072432 | 19 | 187 | 0.0 | 0.0 | 0.00 | 0.20 | 0.00 | 94 | 1014.8 |
| 20260906071421 | 19 | 187 | 0.0 | 0.0 | 0.00 | 0.20 | 0.00 | 94 | 1014.9 |
| 20260906070428 | 19 | 187 | 0.0 | 1.6 | 0.00 | 0.20 | 0.00 | 94 | 1015.1 |
| 20260906065456 | 19 | 187 | 1.6 | 3.2 | 0.00 | 0.20 | 0.00 | 94 | 1014.9 |
| 20260906064423 | 18 | 187 | 0.0 | 0.0 | 0.00 | 0.20 | 0.00 | 94 | 1014.9 |
| 20260906063432 | 18 | 187 | 0.0 | 0.0 | 0.00 | 0.20 | 0.00 | 94 | 1015.0 |
| 20260906062421 | 18 | 187 | 0.0 | 0.0 | 0.00 | 0.20 | 0.00 | 94 | 1014.8 |
| 20260906061430 | 18 | 187 | 0.0 | 0.0 | 0.00 | 0.20 | 0.00 | 94 | 1014.8 |
| 20260906060419 | 18 | 187 | 0.0 | 0.0 | 0.00 | 0.20 | 0.00 | 93 | 1015.3 |
| 20260906055427 | 18 | 187 | 0.0 | 0.0 | 0.00 | 0.20 | 0.00 | 93 | 1015.3 |
| 20260906054433 | 19 | 187 | 0.0 | 0.0 | 0.00 | 0.20 | 0.00 | 93 | 1015.5 |
| 20260906053441 | 19 | 187 | 0.0 | 0.0 | 0.00 | 0.20 | 0.00 | 93 | 1015.5 |
| 20260906052426 | 19 | 187 | 0.0 | 0.0 | 0.00 | 0.20 | 0.00 | 93 | 1015.6 |
| 20260906051432 | 19 | 187 | 0.0 | 0.0 | 0.00 | 0.20 | 0.00 | 93 | 1015.8 |
| 20260906050439 | 19 | 187 | 0.0 | 0.0 | 0.00 | 0.20 | 0.00 | 93 | 1015.7 |
| 20260906045423 | 19 | 187 | 0.0 | 0.0 | 0.00 | 0.20 | 0.00 | 93 | 1015.6 |
| 20260906044430 | 19 | 187 | 0.0 | 0.0 | 0.00 | 0.20 | 0.00 | 93 | 1015.7 |
| 20260906043421 | 19 | 187 | 0.0 | 0.0 | 0.00 | 0.20 | 0.00 | 93 | 1015.8 |
| 20260906042427 | 19 | 187 | 0.0 | 0.0 | 0.00 | 0.20 | 0.00 | 93 | 1015.6 |
| 20260906041415 | 19 | 187 | 0.0 | 0.0 | 0.00 | 0.20 | 0.00 | 92 | 1015.5 |
| 20260906040421 | 20 | 187 | 0.0 | 0.0 | 0.00 | 0.20 | 0.00 | 92 | 1015.6 |
| 20260906035448 | 20 | 187 | 0.0 | 0.0 | 0.00 | 0.20 | 0.20 | 92 | 1015.6 |
| 20260906034434 | 20 | 187 | 0.0 | 0.0 | 0.00 | 0.20 | 0.20 | 92 | 1015.5 |
| 20260906033422 | 20 | 187 | 0.0 | 0.0 | 0.00 | 0.20 | 0.20 | 92 | 1015.5 |
| 20260906032449 | 20 | 187 | 0.0 | 0.0 | 0.00 | 0.20 | 0.20 | 92 | 1015.6 |
| 20260906031434 | 20 | 187 | 0.0 | 0.0 | 0.00 | 0.20 | 0.20 | 92 | 1015.6 |
| 20260906030420 | 20 | 187 | 0.0 | 0.0 | 0.00 | 0.20 | 0.20 | 91 | 1015.7 |
| 20260906025429 | 20 | 187 | 0.0 | 0.0 | 0.00 | 0.20 | 0.20 | 91 | 1015.7 |
| 20260906024421 | 20 | 187 | 0.0 | 0.0 | 0.00 | 0.20 | 0.20 | 91 | 1015.6 |
| 20260906023428 | 21 | 187 | 0.0 | 0.0 | 0.00 | 0.20 | 0.20 | 91 | 1015.8 |
| 20260906022435 | 21 | 187 | 0.0 | 0.0 | 0.00 | 0.20 | 0.20 | 91 | 1015.8 |
| 20260906021424 | 21 | 187 | 0.0 | 0.0 | 0.00 | 0.20 | 0.20 | 91 | 1015.8 |
| 20260906020431 | 21 | 187 | 0.0 | 0.0 | 0.00 | 0.20 | 0.20 | 90 | 1015.8 |
| 20260906015438 | 21 | 187 | 0.0 | 0.0 | 0.00 | 0.20 | 0.20 | 90 | 1015.7 |
| 20260906014421 | 21 | 187 | 0.0 | 0.0 | 0.00 | 0.20 | 0.20 | 90 | 1015.6 |
| 20260906013427 | 21 | 187 | 0.0 | 0.0 | 0.00 | 0.20 | 0.20 | 90 | 1015.8 |
| 20260906012417 | 21 | 187 | 0.0 | 0.0 | 0.00 | 0.20 | 0.20 | 89 | 1015.5 |
| 20260906011423 | 22 | 187 | 0.0 | 0.0 | 0.00 | 0.20 | 0.20 | 89 | 1015.3 |
| 20260906010431 | 22 | 187 | 0.0 | 0.0 | 0.00 | 0.20 | 0.20 | 88 | 1015.1 |
| 20260906005419 | 22 | 187 | 0.0 | 0.0 | 0.00 | 0.20 | 0.20 | 88 | 1015.1 |
| 20260906004425 | 22 | 187 | 0.0 | 0.0 | 0.00 | 0.20 | 0.20 | 87 | 1015.0 |
| 20260906003451 | 23 | 187 | 0.0 | 0.0 | 0.00 | 0.20 | 0.20 | 86 | 1015.0 |
| 20260906002435 | 23 | 187 | 0.0 | 0.0 | 0.00 | 0.20 | 0.20 | 85 | 1015.0 |
| 20260906001421 | 23 | 187 | 0.0 | 0.0 | 0.00 | 0.20 | 0.20 | 84 | 1014.8 |
| 20260906000450 | 24 | 187 | 0.0 | 0.0 | 0.00 | 0.20 | 0.20 | 82 | 1014.7 |
| 20260905235437 | 25 | 187 | 0.0 | 0.0 | 0.00 | 0.20 | 0.20 | 80 | 1014.7 |
| 20260905234422 | 26 | 187 | 0.0 | 0.0 | 0.00 | 0.20 | 0.20 | 79 | 1014.6 |
| 20260905233429 | 26 | 187 | 0.0 | 1.6 | 0.00 | 0.20 | 0.20 | 77 | 1014.5 |
| 20260905232415 | 27 | 187 | 1.6 | 3.2 | 0.00 | 0.20 | 0.20 | 75 | 1014.6 |
| 20260905231420 | 27 | 187 | 1.6 | 4.8 | 0.00 | 0.20 | 0.20 | 74 | 1014.6 |
| 20260905230425 | 27 | 187 | 0.0 | 4.8 | 0.00 | 0.20 | 0.20 | 73 | 1014.6 |
| 20260905225431 | 27 | 187 | 3.2 | 8.0 | 0.00 | 0.30 | 0.20 | 72 | 1014.8 |
| 20260905224422 | 27 | 191 | 3.2 | 8.0 | 0.00 | 0.30 | 0.20 | 72 | 1014.8 |
| 20260905223450 | 28 | 188 | 3.2 | 8.0 | 0.00 | 0.30 | 0.20 | 72 | 1015.0 |
| 20260905222417 | 28 | 184 | 1.6 | 8.0 | 0.00 | 0.30 | 0.20 | 71 | 1014.8 |
| 20260905221444 | 28 | 178 | 1.6 | 6.4 | 0.00 | 0.30 | 0.20 | 71 | 1015.0 |
| 20260905220432 | 28 | 182 | 3.2 | 6.4 | 0.00 | 0.30 | 0.20 | 68 | 1015.0 |
| 20260905215419 | 28 | 184 | 3.2 | 4.8 | 0.00 | 0.30 | 0.20 | 72 | 1015.0 |
| 20260905214427 | 28 | 185 | 0.0 | 3.2 | 0.00 | 0.30 | 0.20 | 71 | 1014.8 |
| 20260905213434 | 28 | 185 | 4.8 | 8.0 | 0.00 | 0.30 | 0.20 | 71 | 1014.7 |
| 20260905212442 | 28 | 188 | 1.6 | 8.0 | 0.00 | 0.30 | 0.20 | 71 | 1014.7 |
| 20260905211426 | 28 | 189 | 4.8 | 11.3 | 0.00 | 0.30 | 0.20 | 71 | 1014.7 |
| 20260905210431 | 28 | 165 | 6.4 | 12.9 | 0.00 | 0.30 | 0.20 | 70 | 1014.7 |
| 20260905205417 | 28 | 195 | 4.8 | 11.3 | 0.00 | 1.19 | 0.20 | 70 | 1014.7 |
| 20260905204429 | 28 | 192 | 4.8 | 12.9 | 0.00 | 1.19 | 0.20 | 70 | 1014.6 |
| 20260905203418 | 27 | 175 | 6.4 | 12.9 | 0.00 | 1.19 | 0.20 | 70 | 1014.6 |
| 20260905202427 | 27 | 198 | 6.4 | 12.9 | 0.00 | 1.19 | 0.20 | 70 | 1014.5 |
| 20260905201454 | 27 | 153 | 4.8 | 11.3 | 0.00 | 1.19 | 0.20 | 71 | 1014.5 |
| 20260905200423 | 27 | 196 | 4.8 | 11.3 | 0.00 | 1.19 | 0.20 | 73 | 1014.6 |
| 20260905195433 | 26 | 181 | 4.8 | 11.3 | 0.00 | 1.19 | 0.20 | 73 | 1014.8 |
| 20260905194439 | 26 | 194 | 4.8 | 11.3 | 0.00 | 1.19 | 0.20 | 74 | 1014.7 |
| 20260905193424 | 26 | 168 | 4.8 | 11.3 | 0.00 | 1.19 | 0.20 | 75 | 1014.8 |
| 20260905192431 | 25 | 176 | 3.2 | 8.0 | 0.00 | 1.19 | 0.20 | 78 | 1014.8 |
| 20260905191419 | 24 | 195 | 4.8 | 9.7 | 0.00 | 1.19 | 0.20 | 78 | 1015.0 |
| 20260905190426 | 23 | 192 | 3.2 | 8.0 | 0.00 | 1.19 | 0.20 | 80 | 1015.1 |
| 20260905185439 | 23 | 186 | 1.6 | 8.0 | 0.00 | 1.19 | 0.20 | 82 | 1015.4 |
| 20260905184425 | 23 | 167 | 3.2 | 8.0 | 0.00 | 1.19 | 0.20 | 83 | 1015.8 |
| 20260905183432 | 22 | 196 | 6.4 | 11.3 | 0.00 | 1.19 | 0.20 | 85 | 1015.9 |
| 20260905182417 | 22 | 210 | 3.2 | 6.4 | 0.00 | 1.19 | 0.20 | 85 | 1016.3 |
| 20260905181424 | 22 | 202 | 3.2 | 9.7 | 0.00 | 1.19 | 0.20 | 84 | 1016.5 |
| 20260905180428 | 22 | 192 | 4.8 | 8.0 | 0.00 | 1.19 | 0.20 | 86 | 1016.8 |
| 20260905175434 | 22 | 198 | 3.2 | 6.4 | 0.00 | 1.19 | 0.20 | 88 | 1017.0 |
| 20260905174423 | 21 | 200 | 0.0 | 6.4 | 0.00 | 1.19 | 0.20 | 89 | 1016.9 |
| 20260905173430 | 21 | 269 | 0.0 | 3.2 | 0.00 | 1.19 | 0.20 | 89 | 1017.2 |
| 20260905172417 | 21 | 268 | 0.0 | 3.2 | 0.03 | 1.19 | 0.20 | 90 | 1017.2 |
| 20260905171421 | 21 | 269 | 1.6 | 4.8 | 0.03 | 1.19 | 0.20 | 90 | 1018.0 |
| 20260905170429 | 21 | 333 | 4.8 | 9.7 | 0.05 | 1.19 | 0.20 | 90 | 1017.9 |
| 20260905165440 | 21 | 360 | 0.0 | 3.2 | 0.05 | 1.19 | 0.20 | 90 | 1017.6 |
| 20260905164426 | 21 | 5 | 0.0 | 4.8 | 0.05 | 1.19 | 0.20 | 89 | 1018.1 |
| 20260905163452 | 21 | 24 | 1.6 | 4.8 | 0.15 | 1.19 | 0.20 | 89 | 1018.2 |
| 20260905162417 | 21 | 134 | 0.0 | 1.6 | 0.15 | 1.17 | 0.18 | 88 | 1018.5 |
| 20260905161424 | 21 | 342 | 0.0 | 1.6 | 0.15 | 1.17 | 0.18 | 87 | 1018.6 |
| 20260905160433 | 21 | 342 | 3.2 | 11.3 | 0.13 | 1.14 | 0.15 | 85 | 1018.4 |
| 20260905155420 | 21 | 211 | 1.6 | 16.1 | 0.13 | 1.14 | 0.15 | 84 | 1018.5 |
| 20260905154448 | 22 | 261 | 8.0 | 27.4 | 0.13 | 1.14 | 0.15 | 81 | 1018.5 |
| 20260905153416 | 25 | 202 | 12.9 | 35.4 | 0.00 | 1.02 | 0.03 | 74 | 1018.8 |
| 20260905152425 | 25 | 174 | 3.2 | 6.4 | 0.00 | 1.02 | 0.03 | 84 | 1017.7 |
| 20260905151455 | 26 | 194 | 1.6 | 9.7 | 0.00 | 1.02 | 0.03 | 85 | 1017.7 |
| 20260905150419 | 25 | 184 | 3.2 | 9.7 | 0.00 | 1.02 | 0.03 | 86 | 1017.7 |
| 20260905145431 | 25 | 189 | 6.4 | 12.9 | 0.00 | 1.02 | 0.03 | 89 | 1017.3 |
| 20260905144416 | 23 | 188 | 3.2 | 8.0 | 0.00 | 1.02 | 0.03 | 92 | 1017.2 |
| 20260905143421 | 23 | 186 | 0.0 | 4.8 | 0.00 | 1.02 | 0.03 | 94 | 1017.0 |
| 20260905142450 | 22 | 186 | 0.0 | 8.0 | 0.00 | 1.02 | 0.03 | 95 | 1017.2 |
| 20260905141419 | 22 | 188 | 1.6 | 6.4 | 0.00 | 1.02 | 0.03 | 95 | 1017.3 |
| 20260905140425 | 22 | 192 | 0.0 | 4.8 | 0.00 | 1.02 | 0.03 | 95 | 1017.4 |
| 20260905135430 | 21 | 192 | 1.6 | 8.0 | 0.00 | 1.02 | 0.03 | 95 | 1017.4 |
| 20260905134417 | 21 | 227 | 3.2 | 4.8 | 0.00 | 1.02 | 0.03 | 95 | 1017.4 |
| 20260905133424 | 21 | 228 | 0.0 | 0.0 | 0.00 | 1.02 | 0.03 | 95 | 1017.4 |
| 20260905132454 | 20 | 228 | 0.0 | 0.0 | 0.00 | 1.02 | 0.03 | 95 | 1017.5 |
| 20260905131417 | 20 | 228 | 0.0 | 0.0 | 0.00 | 1.02 | 0.03 | 95 | 1017.4 |
| 20260905130430 | 20 | 228 | 0.0 | 0.0 | 0.00 | 1.02 | 0.03 | 95 | 1017.5 |
| 20260905125435 | 20 | 229 | 0.0 | 0.0 | 0.00 | 1.02 | 0.03 | 95 | 1017.7 |
| 20260905124421 | 19 | 229 | 0.0 | 0.0 | 0.00 | 1.02 | 0.03 | 95 | 1017.6 |
| 20260905123431 | 19 | 229 | 0.0 | 0.0 | 0.00 | 1.02 | 0.03 | 95 | 1017.7 |
| 20260905122417 | 19 | 229 | 0.0 | 0.0 | 0.00 | 1.02 | 0.03 | 95 | 1017.6 |
| 20260905121425 | 18 | 355 | 0.0 | 0.0 | 0.00 | 1.02 | 0.03 | 95 | 1017.6 |
| 20260905120432 | 18 | 355 | 0.0 | 0.0 | 0.00 | 1.02 | 0.03 | 95 | 1017.5 |
| 20260905115440 | 18 | 355 | 0.0 | 0.0 | 0.00 | 1.02 | 0.03 | 95 | 1017.5 |
| 20260905114427 | 18 | 355 | 0.0 | 0.0 | 0.00 | 1.02 | 0.03 | 95 | 1017.3 |
| 20260905113432 | 17 | 355 | 0.0 | 0.0 | 0.00 | 1.02 | 0.03 | 95 | 1017.2 |
| 20260905112419 | 17 | 355 | 0.0 | 0.0 | 0.00 | 1.02 | 0.03 | 95 | 1017.1 |
| 20260905111430 | 17 | 355 | 0.0 | 0.0 | 0.00 | 1.02 | 0.03 | 95 | 1017.2 |
| 20260905110418 | 17 | 355 | 0.0 | 0.0 | 0.00 | 1.02 | 0.03 | 95 | 1017.1 |
| 20260905105429 | 17 | 355 | 0.0 | 0.0 | 0.00 | 1.02 | 0.03 | 95 | 1017.1 |
| 20260905104417 | 17 | 355 | 0.0 | 0.0 | 0.00 | 1.02 | 0.03 | 95 | 1017.0 |
| 20260905103419 | 17 | 355 | 0.0 | 0.0 | 0.00 | 1.02 | 0.03 | 95 | 1017.0 |
| 20260905102426 | 17 | 355 | 0.0 | 0.0 | 0.00 | 1.02 | 0.03 | 95 | 1016.9 |
| 20260905101453 | 17 | 355 | 0.0 | 0.0 | 0.00 | 1.02 | 0.03 | 94 | 1016.7 |
| 20260905100440 | 17 | 355 | 0.0 | 0.0 | 0.00 | 1.02 | 0.03 | 95 | 1016.7 |
| 20260905095428 | 18 | 355 | 0.0 | 0.0 | 0.00 | 1.02 | 0.03 | 95 | 1016.6 |
| 20260905094415 | 18 | 355 | 0.0 | 0.0 | 0.00 | 1.02 | 0.03 | 94 | 1016.6 |
| 20260905093421 | 18 | 355 | 0.0 | 0.0 | 0.00 | 1.02 | 0.03 | 94 | 1016.6 |